createdAt,value
2022-10-18T09:59:27.495Z,0
2022-10-18T10:04:34.520Z,778
2022-10-18T10:09:41.525Z,785
2022-10-18T10:14:48.668Z,761
2022-10-18T10:19:55.656Z,757
2022-10-18T10:25:01.830Z,760
2022-10-18T10:30:08.634Z,758
2022-10-18T10:35:14.914Z,778
2022-10-18T10:40:20.612Z,786
2022-10-18T10:45:27.546Z,788
2022-10-18T10:50:33.867Z,779
2022-10-18T10:55:40.526Z,774
2022-10-18T11:00:46.928Z,769
2022-10-18T11:05:53.521Z,776
2022-10-18T11:10:59.971Z,785
2022-10-18T11:16:06.765Z,797
2022-10-18T11:21:13.716Z,776
2022-10-18T11:26:20.693Z,781
2022-10-18T11:31:27.538Z,796
2022-10-18T11:36:34.545Z,825
2022-10-18T11:41:39.930Z,879
2022-10-18T11:46:45.526Z,933
2022-10-18T11:51:51.960Z,994
2022-10-18T11:56:58.557Z,998
2022-10-18T12:02:04.874Z,989
2022-10-18T12:07:11.541Z,984
2022-10-18T12:12:17.860Z,978
2022-10-18T12:17:24.534Z,960
2022-10-18T12:22:30.935Z,945
2022-10-18T12:27:37.537Z,944
2022-10-18T12:32:43.870Z,935
2022-10-18T12:37:50.570Z,910
2022-10-18T12:42:56.857Z,905
2022-10-18T12:48:03.539Z,920
2022-10-18T12:53:09.980Z,873
2022-10-18T12:58:15.550Z,891
2022-10-18T13:03:21.963Z,893
2022-10-18T13:08:28.540Z,803
2022-10-18T13:13:34.861Z,791
2022-10-18T13:18:41.547Z,841
2022-10-18T13:23:47.865Z,880
2022-10-18T13:28:53.537Z,915
2022-10-18T13:33:59.009Z,929
2022-10-18T13:39:04.578Z,955
2022-10-18T13:44:09.898Z,987
2022-10-18T13:49:16.597Z,1015
2022-10-18T13:54:22.872Z,1052
2022-10-18T13:59:29.537Z,1061
2022-10-18T14:04:35.952Z,1085
2022-10-18T14:09:42.599Z,1090
2022-10-18T14:14:48.935Z,1092
2022-10-18T14:19:55.567Z,1084
2022-10-18T14:25:01.923Z,1064
2022-10-18T14:30:08.569Z,964
2022-10-18T14:55:40.887Z,2700
2022-10-18T15:00:47.511Z,2658
2022-10-18T15:05:53.906Z,2625
2022-10-18T15:11:00.510Z,2602
2022-10-18T15:16:06.845Z,2589
2022-10-18T15:21:13.543Z,2578
2022-10-18T15:26:19.910Z,2555
2022-10-18T15:31:26.532Z,2538
2022-10-18T15:36:33.024Z,2539
2022-10-18T15:41:39.547Z,2523
2022-10-18T15:46:45.839Z,2519
2022-10-18T15:51:52.526Z,2513
2022-10-18T15:56:58.939Z,2499
2022-10-18T16:02:05.547Z,2494
2022-10-18T16:07:11.927Z,2488
2022-10-18T16:12:18.680Z,2467
2022-10-18T16:17:25.215Z,2464
2022-10-18T16:22:31.766Z,2465
2022-10-18T16:27:38.661Z,2467
2022-10-18T16:32:44.949Z,2461
2022-10-18T16:37:51.521Z,2451
2022-10-18T16:42:57.888Z,2449
2022-10-18T16:48:04.523Z,2441
2022-10-18T16:53:10.918Z,2446
2022-10-18T16:58:17.774Z,2432
2022-10-18T17:08:31.018Z,2886
2022-10-18T17:13:37.745Z,3282
2022-10-18T17:18:44.208Z,3748
